createdAt,value
2023-03-11T00:00:26.577Z,3.03
2023-03-11T00:01:29.201Z,2.78
2023-03-11T00:02:33.634Z,2.67
2023-03-11T00:03:36.305Z,2.88
2023-03-11T00:04:38.797Z,2.22
2023-03-11T00:05:43.644Z,1.73
2023-03-11T00:06:46.402Z,2.00
2023-03-11T00:07:48.775Z,1.85
2023-03-11T00:08:50.785Z,1.67
2023-03-11T00:09:53.437Z,1.40
2023-03-11T00:10:57.293Z,1.70
2023-03-11T00:11:59.499Z,1.33
2023-03-11T00:13:02.268Z,1.20
2023-03-11T00:14:04.000Z,1.38
2023-03-11T00:15:06.324Z,1.42
2023-03-11T00:16:08.010Z,1.60
2023-03-11T00:17:09.703Z,1.52
2023-03-11T00:18:11.416Z,1.40
2023-03-11T00:19:13.263Z,1.27
2023-03-11T00:20:22.571Z,1.70
2023-03-11T00:21:24.203Z,1.65
2023-03-11T00:22:26.014Z,1.73
2023-03-11T00:23:28.546Z,1.77
2023-03-11T00:24:30.257Z,1.60
2023-03-11T00:25:34.318Z,2.38
2023-03-11T00:26:36.020Z,1.83
2023-03-11T00:27:37.872Z,1.65
2023-03-11T00:28:39.586Z,1.80
2023-03-11T00:29:41.293Z,1.73
2023-03-11T00:30:44.630Z,1.70
2023-03-11T00:31:48.266Z,1.70
2023-03-11T00:32:56.187Z,1.50
2023-03-11T00:33:58.719Z,1.80
2023-03-11T00:35:00.540Z,1.70
2023-03-11T00:36:03.303Z,1.70
2023-03-11T00:37:07.124Z,1.37
2023-03-11T00:38:12.877Z,1.25
2023-03-11T00:39:15.526Z,1.30
2023-03-11T00:40:19.719Z,1.30
2023-03-11T00:41:21.918Z,1.60
2023-03-11T00:42:24.244Z,1.27
2023-03-11T00:43:26.751Z,1.30
2023-03-11T00:44:31.759Z,1.17
2023-03-11T00:45:33.684Z,1.02
2023-03-11T00:46:35.833Z,1.95
2023-03-11T00:47:38.376Z,2.00
2023-03-11T00:48:40.402Z,1.90
2023-03-11T00:49:45.289Z,1.88
2023-03-11T00:50:47.606Z,2.53
2023-03-11T00:51:49.786Z,1.90
2023-03-11T00:52:52.080Z,2.08
2023-03-11T00:53:54.455Z,2.75
2023-03-11T00:54:56.735Z,2.67
2023-03-11T00:55:58.520Z,2.65
2023-03-11T00:57:01.000Z,2.20
2023-03-11T00:58:05.739Z,2.20
2023-03-11T00:59:08.102Z,2.35
2023-03-11T01:00:17.059Z,1.90
2023-03-11T01:01:20.558Z,2.03
2023-03-11T01:02:23.291Z,1.70
2023-03-11T01:03:25.596Z,1.60
2023-03-11T01:04:27.970Z,2.00
2023-03-11T01:05:32.566Z,1.85
2023-03-11T01:06:44.824Z,2.47
2023-03-11T01:07:47.511Z,2.38
2023-03-11T01:08:49.290Z,2.60
2023-03-11T01:09:51.026Z,2.45
2023-03-11T01:10:53.526Z,2.80
2023-03-11T01:11:55.238Z,2.15
2023-03-11T01:12:57.134Z,2.40
2023-03-11T01:13:59.132Z,2.70
2023-03-11T01:15:00.841Z,2.55
2023-03-11T01:16:02.998Z,2.22
2023-03-11T01:17:04.921Z,3.10
2023-03-11T01:18:07.252Z,3.25
2023-03-11T01:19:09.012Z,3.07
2023-03-11T01:20:11.653Z,3.08
2023-03-11T01:21:13.306Z,2.80
2023-03-11T01:22:15.145Z,3.10
2023-03-11T01:23:18.283Z,2.90
2023-03-11T01:24:20.010Z,2.58
2023-03-11T01:25:23.825Z,2.50
2023-03-11T01:26:25.580Z,2.05
2023-03-11T01:27:27.300Z,2.30
2023-03-11T01:28:29.053Z,2.00
2023-03-11T01:29:30.877Z,2.93
2023-03-11T01:30:32.659Z,2.83
2023-03-11T01:31:34.333Z,2.30
2023-03-11T01:32:36.093Z,2.40
2023-03-11T01:33:38.087Z,2.40
2023-03-11T01:34:39.822Z,2.08
2023-03-11T01:35:42.051Z,2.38
2023-03-11T01:36:43.926Z,1.90
2023-03-11T01:37:45.858Z,2.20
2023-03-11T01:38:47.648Z,2.75
2023-03-11T01:39:49.414Z,3.30
2023-03-11T01:40:52.110Z,2.88
2023-03-11T01:41:53.938Z,3.65
2023-03-11T01:42:55.766Z,3.38
2023-03-11T01:43:57.454Z,2.90
2023-03-11T01:44:59.186Z,3.53
2023-03-11T01:46:00.921Z,3.53
2023-03-11T01:47:02.602Z,3.40
2023-03-11T01:48:05.068Z,3.28
2023-03-11T01:49:12.812Z,3.30
2023-03-11T01:50:14.556Z,2.80
2023-03-11T01:51:20.798Z,1.88
2023-03-11T01:52:22.568Z,2.55
2023-03-11T01:53:24.912Z,1.83
2023-03-11T01:54:36.194Z,2.42
2023-03-11T01:55:38.591Z,1.98
2023-03-11T01:56:42.089Z,2.05
2023-03-11T01:57:45.843Z,2.10
2023-03-11T01:58:50.616Z,2.17
2023-03-11T01:59:56.131Z,2.00
2023-03-11T02:00:59.821Z,2.27
2023-03-11T02:02:27.055Z,2.17
2023-03-11T02:03:38.958Z,2.20
2023-03-11T02:04:42.066Z,2.35
2023-03-11T02:05:44.023Z,2.20
2023-03-11T02:06:46.273Z,2.28
2023-03-11T02:07:51.164Z,2.63
2023-03-11T02:08:53.175Z,2.45
2023-03-11T02:09:55.079Z,2.70
2023-03-11T02:10:57.719Z,2.75
2023-03-11T02:11:59.791Z,2.07
2023-03-11T02:13:03.281Z,3.58
2023-03-11T02:14:08.028Z,2.58
2023-03-11T02:15:11.031Z,3.30
2023-03-11T02:16:13.222Z,3.28
2023-03-11T02:17:16.980Z,3.03
2023-03-11T02:18:19.541Z,2.85
2023-03-11T02:19:58.510Z,3.00
2023-03-11T02:21:13.821Z,2.78
2023-03-11T02:22:16.436Z,2.97
2023-03-11T02:23:22.292Z,3.40
2023-03-11T02:24:35.824Z,3.42
2023-03-11T02:25:48.284Z,3.65
2023-03-11T02:27:05.728Z,3.65
2023-03-11T02:28:11.295Z,4.50
2023-03-11T02:29:13.712Z,3.95
2023-03-11T02:30:17.211Z,4.18
2023-03-11T02:31:19.820Z,4.38
2023-03-11T02:32:21.879Z,3.92
2023-03-11T02:33:28.236Z,3.58
2023-03-11T02:34:32.829Z,4.17
2023-03-11T02:35:34.615Z,3.67
2023-03-11T02:36:39.807Z,3.55
2023-03-11T02:37:49.696Z,3.35
2023-03-11T02:38:51.399Z,4.20
2023-03-11T02:39:55.193Z,4.75
2023-03-11T02:41:00.405Z,3.50
2023-03-11T02:42:10.523Z,3.45
2023-03-11T02:43:18.865Z,3.65
2023-03-11T02:44:21.134Z,4.75
2023-03-11T02:45:25.901Z,28.00
2023-03-11T02:46:31.111Z,27.80
2023-03-11T02:47:34.847Z,14.60
2023-03-11T02:48:37.996Z,6.95
2023-03-11T02:51:07.177Z,3.10
2023-03-11T02:52:09.254Z,2.40
2023-03-11T02:53:11.159Z,2.72
2023-03-11T02:54:12.979Z,2.60
2023-03-11T02:55:15.254Z,2.03
2023-03-11T02:56:17.267Z,2.17
2023-03-11T02:57:19.333Z,2.55
2023-03-11T02:58:21.352Z,3.08
2023-03-11T02:59:23.674Z,2.85
2023-03-11T03:00:26.214Z,2.22
2023-03-11T03:01:28.552Z,2.40
2023-03-11T03:02:31.264Z,2.55
2023-03-11T03:03:33.910Z,2.30
2023-03-11T03:04:36.071Z,2.00
2023-03-11T03:05:38.803Z,2.15
2023-03-11T03:06:41.314Z,2.20
2023-03-11T03:07:43.200Z,2.20
2023-03-11T03:08:45.312Z,2.33
2023-03-11T03:09:47.240Z,1.98
2023-03-11T03:10:49.040Z,1.88
2023-03-11T03:11:50.981Z,1.80
2023-03-11T03:12:52.742Z,1.50
2023-03-11T03:13:54.574Z,2.00
2023-03-11T03:14:56.415Z,1.30
2023-03-11T03:15:59.093Z,1.15
2023-03-11T03:17:01.063Z,1.13
2023-03-11T03:18:03.103Z,0.73
2023-03-11T03:19:04.971Z,1.10
2023-03-11T03:20:08.244Z,0.60
2023-03-11T03:21:10.180Z,0.70
2023-03-11T03:22:12.971Z,0.60
2023-03-11T03:23:15.053Z,0.70
2023-03-11T03:24:17.014Z,0.90
2023-03-11T03:25:19.064Z,1.20
2023-03-11T03:26:20.922Z,1.10
2023-03-11T03:27:22.719Z,1.20
2023-03-11T03:28:24.481Z,0.90
2023-03-11T03:29:26.362Z,1.00
2023-03-11T03:30:28.238Z,0.70
2023-03-11T03:31:30.110Z,0.98
2023-03-11T03:32:32.170Z,0.73
2023-03-11T03:33:34.280Z,0.68
2023-03-11T03:34:36.050Z,1.00
2023-03-11T03:35:42.732Z,0.70
2023-03-11T03:36:44.664Z,0.40
2023-03-11T03:37:46.462Z,0.70
2023-03-11T03:38:48.197Z,0.50
2023-03-11T03:39:50.125Z,0.57
2023-03-11T03:40:51.992Z,0.70
2023-03-11T03:41:54.620Z,0.60
2023-03-11T03:42:56.456Z,0.40
2023-03-11T03:43:59.185Z,0.73
2023-03-11T03:45:01.156Z,0.50
2023-03-11T03:46:05.599Z,0.40
2023-03-11T03:47:07.620Z,0.60
2023-03-11T03:48:11.354Z,0.60
2023-03-11T03:49:13.370Z,0.30
2023-03-11T03:50:15.490Z,0.90
2023-03-11T03:51:18.101Z,0.40
2023-03-11T03:52:19.910Z,0.47
2023-03-11T03:53:22.360Z,0.52
2023-03-11T03:54:24.346Z,0.80
2023-03-11T03:55:26.109Z,0.93
2023-03-11T03:56:27.938Z,1.10
2023-03-11T03:57:30.144Z,0.70
2023-03-11T03:58:32.114Z,1.30
2023-03-11T03:59:33.869Z,0.80
2023-03-11T04:00:36.385Z,0.50
2023-03-11T04:01:38.254Z,0.80
2023-03-11T04:02:40.489Z,1.00
2023-03-11T04:03:42.776Z,0.85
2023-03-11T04:04:44.705Z,0.80
2023-03-11T04:05:46.517Z,0.80
2023-03-11T04:06:48.336Z,0.73
2023-03-11T04:07:50.192Z,1.00
2023-03-11T04:08:53.238Z,0.90
2023-03-11T04:09:55.216Z,1.15
2023-03-11T04:10:57.859Z,0.80
2023-03-11T04:12:00.060Z,1.00
2023-03-11T04:13:02.076Z,0.70
2023-03-11T04:14:05.119Z,1.00
2023-03-11T04:15:08.056Z,0.60
2023-03-11T04:16:14.796Z,0.73
2023-03-11T04:17:16.588Z,0.90
2023-03-11T04:18:18.348Z,0.57
2023-03-11T04:19:20.226Z,0.60
2023-03-11T04:20:22.092Z,0.50
2023-03-11T04:21:24.737Z,0.63
2023-03-11T04:22:26.590Z,0.60
2023-03-11T04:23:28.380Z,0.40
2023-03-11T04:24:30.470Z,0.45
2023-03-11T04:25:32.214Z,0.40
2023-03-11T04:26:33.984Z,0.60
2023-03-11T04:27:35.815Z,0.40
2023-03-11T04:28:37.616Z,0.50
2023-03-11T04:29:39.478Z,0.70
2023-03-11T04:30:41.827Z,0.60
2023-03-11T04:31:43.685Z,0.60
2023-03-11T04:32:45.585Z,0.52
2023-03-11T04:33:47.357Z,0.57
2023-03-11T04:34:49.352Z,0.60
2023-03-11T04:35:51.181Z,0.65
2023-03-11T04:36:54.830Z,0.70
2023-03-11T04:37:57.256Z,0.65
2023-03-11T04:38:59.548Z,0.40
2023-03-11T05:13:47.879Z,1.85
2023-03-11T05:14:49.949Z,2.20
2023-03-11T05:15:52.046Z,1.67
2023-03-11T05:16:53.893Z,1.88
2023-03-11T05:17:55.682Z,1.83
2023-03-11T05:18:57.477Z,1.30
2023-03-11T05:19:59.304Z,1.30
2023-03-11T05:21:01.328Z,2.80
2023-03-11T05:22:04.691Z,3.15
2023-03-11T05:23:06.646Z,2.58
2023-03-11T05:24:08.488Z,1.42
2023-03-11T05:25:10.378Z,1.10
2023-03-11T05:26:12.188Z,1.20
2023-03-11T05:27:14.837Z,1.00
2023-03-11T05:28:16.726Z,0.85
2023-03-11T05:29:19.704Z,1.10
2023-03-11T05:30:22.046Z,0.90
2023-03-11T05:31:23.994Z,1.15
2023-03-11T05:32:26.127Z,1.17
2023-03-11T05:33:28.097Z,0.98
2023-03-11T05:34:30.061Z,0.85
2023-03-11T05:35:31.883Z,0.70
2023-03-11T05:36:33.846Z,0.70
2023-03-11T05:37:35.655Z,0.80
2023-03-11T05:38:37.970Z,0.55
2023-03-11T05:39:39.915Z,0.80
2023-03-11T05:40:42.145Z,0.82
2023-03-11T05:41:44.817Z,0.50
2023-03-11T05:42:47.752Z,0.80
2023-03-11T05:43:49.735Z,0.60
2023-03-11T05:44:52.307Z,0.60
2023-03-11T06:01:16.765Z,1.42
2023-03-11T06:02:19.123Z,1.10
2023-03-11T06:03:21.832Z,1.70
2023-03-11T06:04:24.226Z,2.25
2023-03-11T06:05:26.515Z,2.30
2023-03-11T06:06:29.254Z,2.70
2023-03-11T06:07:31.415Z,3.20
2023-03-11T06:08:33.940Z,2.30
2023-03-11T06:09:36.165Z,1.70
2023-03-11T06:10:38.639Z,1.20
2023-03-11T06:11:41.040Z,1.38
2023-03-11T06:12:43.583Z,1.10
2023-03-11T06:13:45.506Z,1.30
2023-03-11T06:14:47.735Z,1.00
2023-03-11T06:15:50.225Z,1.00
2023-03-11T06:16:52.164Z,1.20
2023-03-11T06:17:54.212Z,1.48
2023-03-11T06:18:58.658Z,1.30
2023-03-11T06:20:00.477Z,1.23
2023-03-11T06:21:03.079Z,1.30
2023-03-11T06:22:05.058Z,1.20
2023-03-11T06:23:06.951Z,1.38
2023-03-11T06:24:08.913Z,1.83
2023-03-11T06:25:10.803Z,1.50
2023-03-11T06:26:15.276Z,1.75
2023-03-11T06:27:17.100Z,2.00
2023-03-11T06:28:18.859Z,1.75
2023-03-11T06:29:20.612Z,1.90
2023-03-11T06:30:23.949Z,2.05
2023-03-11T06:31:28.364Z,2.00
2023-03-11T06:32:30.396Z,1.88
2023-03-11T06:33:32.368Z,1.60
2023-03-11T06:34:34.130Z,2.67
2023-03-11T06:35:35.931Z,2.47
2023-03-11T06:36:38.161Z,2.10
2023-03-11T06:37:40.451Z,2.45
2023-03-11T06:38:42.599Z,1.88
2023-03-11T06:39:44.798Z,1.73
2023-03-11T06:40:46.675Z,2.13
2023-03-11T06:41:48.486Z,1.80
2023-03-11T06:42:50.338Z,1.80
2023-03-11T06:43:52.258Z,2.88
2023-03-11T06:44:53.989Z,2.27
2023-03-11T06:45:55.865Z,2.25
2023-03-11T06:46:57.836Z,2.10
2023-03-11T06:47:59.613Z,1.40
2023-03-11T06:49:01.449Z,1.70
2023-03-11T06:50:03.184Z,2.13
2023-03-11T06:51:05.202Z,3.65
2023-03-11T06:52:07.640Z,2.70
2023-03-11T06:53:10.080Z,2.03
2023-03-11T06:54:11.924Z,2.03
2023-03-11T06:55:13.721Z,1.40
2023-03-11T06:56:15.477Z,1.48
2023-03-11T06:57:17.323Z,1.30
2023-03-11T06:58:19.677Z,1.20
2023-03-11T06:59:21.536Z,1.08
2023-03-11T07:00:23.579Z,1.40
2023-03-11T07:01:26.173Z,1.30
2023-03-11T07:02:28.197Z,1.25
2023-03-11T07:03:30.504Z,1.65
2023-03-11T07:04:33.086Z,1.15
2023-03-11T07:05:34.961Z,1.77
2023-03-11T07:06:36.693Z,1.40
2023-03-11T07:07:38.569Z,3.03
2023-03-11T07:08:40.921Z,2.50
2023-03-11T07:09:42.835Z,2.00
2023-03-11T07:10:44.690Z,1.90
2023-03-11T07:11:46.537Z,1.55
2023-03-11T07:12:48.407Z,1.98
2023-03-11T07:13:50.685Z,1.80
2023-03-11T07:14:56.634Z,1.55
2023-03-11T07:16:11.052Z,1.47
2023-03-11T07:17:12.895Z,1.40
2023-03-11T07:18:14.622Z,1.20
2023-03-11T07:19:16.507Z,1.27
2023-03-11T07:20:19.026Z,1.40
2023-03-11T07:21:22.861Z,1.55
2023-03-11T07:22:24.709Z,1.10
2023-03-11T07:23:26.731Z,1.20
2023-03-11T07:24:28.619Z,1.08
2023-03-11T07:25:30.466Z,1.20
2023-03-11T07:26:33.701Z,0.97
2023-03-11T07:27:35.574Z,1.17
2023-03-11T07:28:38.132Z,1.00
2023-03-11T07:29:39.903Z,1.17
2023-03-11T07:30:41.779Z,1.48
2023-03-11T07:31:43.665Z,1.50
2023-03-11T07:32:45.635Z,1.35
2023-03-11T07:33:47.794Z,1.45
2023-03-11T07:34:49.566Z,1.30
2023-03-11T07:35:52.138Z,1.17
2023-03-11T07:36:53.950Z,1.20
2023-03-11T07:37:55.776Z,0.90
2023-03-11T07:39:04.609Z,1.00
2023-03-11T07:40:07.158Z,0.98
2023-03-11T07:41:10.336Z,2.20
2023-03-11T07:42:12.123Z,6.70
2023-03-11T07:43:14.108Z,2.10
2023-03-11T07:44:17.142Z,10.68
2023-03-11T07:45:19.051Z,2.58
2023-03-11T07:46:21.107Z,0.98
2023-03-11T07:47:22.930Z,0.80
2023-03-11T07:48:24.729Z,1.25
2023-03-11T07:49:26.521Z,0.85
2023-03-11T07:50:28.734Z,0.90
2023-03-11T07:51:33.175Z,0.80
2023-03-11T07:52:34.998Z,0.63
2023-03-11T07:53:36.863Z,0.75
2023-03-11T07:54:38.720Z,0.80
2023-03-11T07:55:40.468Z,0.80
2023-03-11T07:56:42.274Z,0.75
2023-03-11T07:57:46.013Z,0.90
2023-03-11T07:58:47.948Z,0.60
2023-03-11T07:59:49.720Z,0.60
2023-03-11T08:00:52.149Z,0.70
2023-03-11T08:01:53.909Z,0.90
2023-03-11T08:02:55.738Z,0.55
2023-03-11T08:03:57.771Z,0.50
2023-03-11T08:04:59.565Z,0.80
2023-03-11T08:06:02.368Z,0.50
2023-03-11T08:07:04.328Z,0.40
2023-03-11T08:08:06.102Z,0.50
2023-03-11T08:09:09.181Z,0.88
2023-03-11T08:10:11.831Z,0.80
2023-03-11T08:11:15.200Z,0.60
2023-03-11T08:12:17.217Z,0.52
2023-03-11T08:13:19.141Z,0.90
2023-03-11T08:14:20.990Z,0.90
2023-03-11T08:15:22.883Z,0.88
2023-03-11T08:16:25.931Z,0.85
2023-03-11T08:17:27.714Z,0.90
2023-03-11T08:18:29.530Z,1.23
2023-03-11T08:19:31.570Z,0.80
2023-03-11T08:20:33.745Z,1.45
2023-03-11T08:21:35.671Z,1.30
2023-03-11T08:22:43.383Z,0.60
2023-03-11T08:23:51.348Z,0.60
2023-03-11T08:24:53.410Z,0.63
2023-03-11T08:25:55.163Z,0.88
2023-03-11T08:26:57.025Z,0.70
2023-03-11T08:27:58.789Z,0.50
2023-03-11T08:29:00.650Z,0.53
2023-03-11T08:30:02.549Z,0.70
2023-03-11T08:31:11.775Z,0.63
2023-03-11T08:32:13.649Z,0.73
2023-03-11T08:33:15.576Z,0.60
2023-03-11T08:34:17.483Z,4.93
2023-03-11T08:35:19.486Z,6.88
2023-03-11T08:36:21.819Z,7.32
2023-03-11T08:37:24.429Z,8.25
2023-03-11T08:38:26.839Z,1.42
2023-03-11T08:39:28.772Z,0.70
2023-03-11T08:40:30.645Z,0.65
2023-03-11T08:41:32.637Z,0.50
2023-03-11T08:42:36.257Z,0.75
2023-03-11T08:43:39.370Z,0.60
2023-03-11T08:44:41.277Z,0.55
2023-03-11T08:45:43.300Z,0.80
2023-03-11T08:46:45.171Z,0.60
2023-03-11T08:47:47.146Z,0.80
2023-03-11T08:48:48.887Z,0.52
2023-03-11T08:49:50.753Z,1.10
2023-03-11T08:50:54.507Z,0.60
2023-03-11T08:51:56.746Z,1.13
2023-03-11T08:52:58.706Z,0.60
2023-03-11T08:54:01.602Z,0.70
2023-03-11T08:55:03.863Z,0.70
2023-03-11T08:56:06.265Z,5.35
2023-03-11T08:57:08.064Z,1.70
2023-03-11T08:58:09.851Z,0.50
2023-03-11T08:59:11.631Z,2.10
2023-03-11T09:00:13.892Z,0.90
2023-03-11T09:01:15.867Z,0.70
2023-03-11T09:02:17.735Z,0.60
2023-03-11T09:03:19.736Z,0.55
2023-03-11T09:04:21.592Z,0.77
2023-03-11T09:05:23.475Z,0.65
2023-03-11T09:06:25.660Z,0.90
2023-03-11T09:07:27.561Z,0.80
2023-03-11T09:08:29.867Z,1.35
2023-03-11T09:09:32.309Z,0.63
2023-03-11T09:10:34.062Z,0.70
2023-03-11T09:11:35.984Z,0.93
2023-03-11T09:12:37.926Z,0.70
2023-03-11T09:13:40.427Z,0.50
2023-03-11T09:14:43.386Z,0.60
2023-03-11T09:15:45.175Z,0.80
2023-03-11T09:16:47.064Z,0.50
2023-03-11T09:17:48.797Z,0.50
2023-03-11T09:18:50.836Z,0.60
2023-03-11T09:19:52.657Z,0.85
2023-03-11T09:20:54.477Z,0.60
2023-03-11T09:21:56.462Z,0.50
2023-03-11T09:22:58.358Z,0.70
2023-03-11T09:24:00.851Z,0.60
2023-03-11T09:25:02.638Z,0.60
2023-03-11T09:26:04.591Z,0.60
2023-03-11T09:27:06.368Z,0.60
2023-03-11T09:28:08.382Z,0.70
2023-03-11T09:29:10.161Z,0.40
2023-03-11T09:30:12.407Z,0.57
2023-03-11T09:31:15.173Z,0.50
2023-03-11T09:32:17.227Z,0.55
2023-03-11T09:33:18.976Z,0.80
2023-03-11T09:34:20.740Z,0.55
2023-03-11T09:35:22.905Z,0.70
2023-03-11T09:36:25.235Z,0.68
2023-03-11T09:37:27.008Z,0.68
2023-03-11T09:38:29.133Z,0.70
2023-03-11T09:39:31.038Z,0.80
2023-03-11T09:41:00.480Z,0.80
2023-03-11T09:42:25.858Z,0.63
2023-03-11T09:43:45.967Z,0.60
2023-03-11T09:45:19.180Z,0.80
2023-03-11T09:46:58.149Z,0.52
2023-03-11T09:48:02.743Z,1.15
2023-03-11T09:49:07.174Z,1.65
2023-03-11T09:50:37.698Z,0.80
2023-03-11T09:51:57.575Z,0.73
2023-03-11T09:53:30.721Z,0.65
2023-03-11T09:54:40.485Z,0.60
2023-03-11T09:56:00.114Z,0.60
2023-03-11T09:57:04.196Z,0.60
2023-03-11T09:58:24.099Z,0.70
2023-03-11T09:59:32.751Z,0.45
2023-03-11T10:00:34.914Z,0.70
2023-03-11T10:01:42.186Z,0.80
2023-03-11T10:02:44.347Z,0.80
2023-03-11T10:03:48.116Z,0.50
2023-03-11T10:05:01.752Z,0.75
2023-03-11T10:06:15.936Z,0.68
2023-03-11T10:07:21.681Z,0.80
2023-03-11T10:08:59.178Z,0.70
2023-03-11T10:10:01.103Z,0.73
2023-03-11T10:11:24.469Z,0.65
2023-03-11T10:12:47.368Z,0.93
2023-03-11T10:14:33.590Z,0.77
2023-03-11T10:15:56.292Z,0.52
2023-03-11T10:17:13.137Z,0.63
2023-03-11T10:18:26.977Z,0.90
2023-03-11T10:19:34.474Z,0.60
2023-03-11T10:20:45.433Z,0.60
2023-03-11T10:22:06.741Z,0.80
2023-03-11T10:23:33.828Z,0.93
2023-03-11T10:25:04.339Z,0.90
2023-03-11T10:26:57.442Z,0.80
2023-03-11T10:28:06.875Z,0.90
2023-03-11T10:29:21.690Z,1.00
2023-03-11T10:30:29.632Z,0.77
2023-03-11T10:31:37.717Z,1.08
2023-03-11T10:32:54.999Z,0.82
2023-03-11T10:34:11.280Z,0.43
2023-03-11T10:35:20.478Z,0.85
2023-03-11T10:36:40.909Z,0.85
2023-03-11T10:37:54.576Z,0.60
2023-03-11T10:38:56.453Z,0.70
2023-03-11T10:40:08.027Z,0.73
2023-03-11T10:41:27.115Z,0.80
2023-03-11T10:42:29.721Z,0.60
2023-03-11T10:43:45.471Z,0.60
2023-03-11T10:44:47.274Z,0.68
2023-03-11T10:45:51.872Z,0.53
2023-03-11T10:46:53.775Z,0.70
2023-03-11T10:47:57.175Z,0.73
2023-03-11T10:48:59.073Z,0.52
2023-03-11T10:50:00.893Z,0.63
2023-03-11T10:51:23.159Z,0.60
2023-03-11T10:52:25.014Z,0.70
2023-03-11T10:53:27.211Z,0.70
2023-03-11T10:54:33.701Z,0.88
2023-03-11T10:55:36.254Z,0.50
2023-03-11T10:56:40.949Z,0.90
2023-03-11T10:57:42.774Z,0.50
2023-03-11T10:58:50.032Z,0.70
2023-03-11T10:59:59.900Z,0.82
2023-03-11T11:01:25.275Z,0.73
2023-03-11T11:02:30.461Z,0.88
2023-03-11T11:03:33.675Z,0.80
2023-03-11T11:04:39.915Z,0.80
2023-03-11T11:05:41.708Z,0.82
2023-03-11T11:06:43.503Z,1.00
2023-03-11T11:07:47.081Z,0.63
2023-03-11T11:08:48.879Z,0.55
2023-03-11T11:10:13.049Z,0.82
2023-03-11T11:11:23.028Z,1.10
2023-03-11T11:12:24.794Z,0.60
2023-03-11T11:13:29.851Z,1.35
2023-03-11T11:14:52.332Z,1.52
2023-03-11T11:15:56.622Z,1.40
2023-03-11T11:16:58.517Z,1.10
2023-03-11T11:18:03.957Z,0.80
2023-03-11T11:19:14.858Z,0.77
2023-03-11T11:20:20.336Z,0.80
2023-03-11T11:21:33.501Z,1.10
2023-03-11T11:22:36.023Z,1.10
2023-03-11T11:23:48.724Z,0.50
2023-03-11T11:24:53.537Z,0.60
2023-03-11T11:26:04.834Z,0.60
2023-03-11T11:27:26.095Z,0.55
2023-03-11T11:28:28.025Z,0.50
2023-03-11T11:29:30.038Z,0.43
2023-03-11T11:30:32.254Z,0.40
2023-03-11T11:31:34.509Z,0.55
2023-03-11T11:32:37.443Z,0.82
2023-03-11T11:33:49.089Z,0.65
2023-03-11T11:35:11.348Z,0.47
2023-03-11T11:36:16.086Z,0.60
2023-03-11T11:37:17.868Z,0.70
2023-03-11T11:38:22.823Z,0.60
2023-03-11T11:39:31.155Z,0.40
2023-03-11T11:40:33.745Z,0.63
2023-03-11T11:41:37.171Z,0.60
2023-03-11T11:42:42.732Z,0.73
2023-03-11T11:43:48.551Z,5.10
2023-03-11T11:44:57.731Z,1.20
2023-03-11T11:46:13.854Z,0.50
2023-03-11T11:47:24.461Z,0.70
2023-03-11T11:48:35.177Z,0.40
2023-03-11T11:49:37.685Z,0.68
2023-03-11T11:50:52.167Z,0.55
2023-03-11T11:51:57.788Z,0.80
2023-03-11T11:53:33.784Z,0.60
2023-03-11T11:54:45.825Z,0.55
2023-03-11T11:55:50.518Z,0.50
2023-03-11T11:56:52.337Z,0.82
2023-03-11T11:57:54.154Z,1.05
2023-03-11T11:58:56.003Z,0.55
2023-03-11T11:59:57.854Z,0.70
2023-03-11T12:01:05.959Z,0.60
2023-03-11T12:02:16.775Z,0.70
2023-03-11T12:03:29.889Z,0.50
2023-03-11T12:05:17.777Z,1.03
2023-03-11T12:06:57.432Z,0.40
2023-03-11T12:08:48.156Z,0.60
2023-03-11T12:10:19.763Z,0.63
2023-03-11T12:11:29.796Z,0.50
2023-03-11T12:12:46.476Z,0.70
2023-03-11T12:14:06.273Z,0.60
2023-03-11T12:15:40.160Z,0.68
2023-03-11T12:16:55.438Z,0.50
2023-03-11T12:18:04.380Z,0.88
2023-03-11T12:19:12.338Z,0.90
2023-03-11T12:20:17.170Z,0.63
2023-03-11T12:21:52.281Z,0.70
2023-03-11T12:23:38.739Z,0.40
2023-03-11T12:25:02.326Z,0.70
2023-03-11T12:26:23.515Z,1.00
2023-03-11T12:27:51.288Z,0.80
2023-03-11T12:29:04.915Z,0.60
2023-03-11T12:30:23.491Z,0.60
2023-03-11T12:31:29.319Z,0.60
2023-03-11T12:32:36.340Z,0.80
2023-03-11T12:33:45.562Z,0.70
2023-03-11T12:34:48.870Z,0.70
2023-03-11T12:35:55.827Z,0.60
2023-03-11T12:37:01.280Z,0.50
2023-03-11T12:38:21.459Z,0.70
2023-03-11T12:39:29.362Z,0.60
2023-03-11T12:40:43.590Z,0.57
2023-03-11T12:41:45.970Z,0.80
2023-03-11T12:42:47.763Z,0.77
2023-03-11T12:43:52.618Z,0.80
2023-03-11T12:44:54.512Z,0.70
2023-03-11T12:45:57.720Z,0.80
2023-03-11T12:46:59.663Z,0.60
2023-03-11T12:48:29.391Z,0.90
2023-03-11T12:49:34.065Z,0.70
2023-03-11T12:50:42.232Z,0.50
2023-03-11T12:52:01.844Z,0.55
2023-03-11T12:53:03.842Z,0.75
2023-03-11T12:54:41.338Z,0.55
2023-03-11T12:56:02.138Z,0.60
2023-03-11T12:57:16.095Z,1.38
2023-03-11T12:59:00.000Z,0.90
2023-03-11T13:00:45.227Z,0.60
2023-03-11T13:02:14.849Z,1.00
2023-03-11T13:03:44.970Z,28.08
2023-03-11T13:05:06.462Z,2.15
2023-03-11T13:06:35.257Z,1.92
2023-03-11T13:07:40.364Z,0.60
2023-03-11T13:08:52.539Z,0.70
2023-03-11T13:10:33.763Z,0.70
2023-03-11T13:11:46.815Z,0.73
2023-03-11T13:12:50.981Z,1.10
2023-03-11T13:13:53.771Z,0.90
2023-03-11T13:15:21.170Z,1.05
2023-03-11T13:16:23.413Z,0.63
2023-03-11T13:17:28.135Z,0.80
2023-03-11T13:18:30.351Z,0.90
2023-03-11T13:20:26.707Z,0.80
2023-03-11T13:21:28.674Z,0.70
2023-03-11T13:22:52.698Z,1.20
2023-03-11T13:24:21.376Z,0.82
2023-03-11T13:25:31.097Z,0.80
2023-03-11T13:26:59.502Z,1.20
2023-03-11T13:28:39.533Z,1.00
2023-03-11T13:29:56.747Z,0.70
2023-03-11T13:31:15.127Z,0.80
2023-03-11T13:32:45.539Z,1.20
2023-03-11T13:33:47.389Z,0.82
2023-03-11T13:34:49.168Z,0.98
2023-03-11T13:36:14.958Z,0.97
2023-03-11T13:37:35.209Z,1.17
2023-03-11T13:39:21.495Z,0.90
2023-03-11T13:40:39.899Z,1.08
2023-03-11T13:41:44.266Z,1.00
2023-03-11T13:42:51.985Z,1.00
2023-03-11T13:43:59.957Z,0.93
2023-03-11T13:45:02.503Z,0.80
2023-03-11T13:46:13.608Z,0.80
2023-03-11T13:47:17.702Z,0.90
2023-03-11T13:48:39.127Z,1.10
2023-03-11T13:50:08.382Z,0.68
2023-03-11T13:51:31.764Z,0.60
2023-03-11T13:52:39.493Z,0.57
2023-03-11T13:53:48.007Z,0.93
2023-03-11T13:54:53.792Z,0.77
2023-03-11T13:55:56.535Z,1.08
2023-03-11T13:57:00.917Z,0.30
2023-03-11T13:58:17.571Z,0.60
2023-03-11T13:59:28.098Z,6.68
2023-03-11T14:00:31.328Z,8.13
2023-03-11T14:01:33.350Z,6.40
2023-03-11T14:02:36.251Z,4.70
2023-03-11T14:03:43.213Z,2.00
2023-03-11T14:04:51.358Z,0.75
2023-03-11T14:06:03.059Z,0.68
2023-03-11T14:07:28.285Z,0.60
2023-03-11T14:08:38.438Z,0.60
2023-03-11T14:09:40.725Z,0.60
2023-03-11T14:10:53.054Z,0.57
2023-03-11T14:12:03.661Z,0.60
2023-03-11T14:13:18.154Z,0.77
2023-03-11T14:14:44.316Z,0.82
2023-03-11T14:15:52.394Z,1.00
2023-03-11T14:16:55.584Z,1.00
2023-03-11T14:18:36.410Z,0.93
2023-03-11T14:19:38.356Z,1.00
2023-03-11T14:20:40.386Z,1.27
2023-03-11T14:21:47.593Z,1.48
2023-03-11T14:22:54.801Z,1.60
2023-03-11T14:23:56.895Z,1.70
2023-03-11T14:25:02.004Z,1.60
2023-03-11T14:26:08.004Z,1.92
2023-03-11T14:27:10.302Z,1.52
2023-03-11T14:28:21.782Z,1.23
2023-03-11T14:29:32.815Z,1.30
2023-03-11T14:30:35.193Z,1.15
2023-03-11T14:31:39.546Z,1.10
2023-03-11T14:32:41.642Z,0.90
2023-03-11T14:33:43.601Z,0.70
2023-03-11T14:34:45.402Z,0.80
2023-03-11T14:35:59.541Z,0.80
2023-03-11T14:37:02.233Z,0.70
2023-03-11T14:38:21.892Z,1.00
2023-03-11T14:39:32.942Z,0.65
2023-03-11T14:40:37.399Z,0.68
2023-03-11T14:41:40.434Z,2.38
2023-03-11T14:42:43.161Z,8.05
2023-03-11T14:43:49.978Z,6.20
2023-03-11T14:44:58.756Z,6.80
2023-03-11T14:46:02.346Z,4.23
2023-03-11T14:47:10.797Z,2.10
2023-03-11T14:48:25.154Z,1.30
2023-03-11T14:49:27.113Z,1.10
2023-03-11T14:50:34.990Z,1.27
2023-03-11T14:51:37.288Z,1.50
2023-03-11T14:52:51.244Z,1.52
2023-03-11T14:54:24.280Z,1.60
2023-03-11T14:55:33.779Z,1.40
2023-03-11T14:56:41.343Z,1.42
2023-03-11T14:57:54.340Z,1.80
2023-03-11T14:59:26.629Z,1.23
2023-03-11T15:00:42.954Z,2.00
2023-03-11T15:01:47.350Z,3.80
2023-03-11T15:03:01.517Z,9.27
2023-03-11T15:04:13.679Z,22.75
2023-03-11T15:05:36.020Z,11.13
2023-03-11T15:06:41.297Z,2.25
2023-03-11T15:07:45.713Z,2.22
2023-03-11T15:08:51.485Z,2.20
2023-03-11T15:09:53.697Z,2.50
2023-03-11T15:11:04.563Z,2.03
2023-03-11T15:12:06.969Z,1.75
2023-03-11T15:13:17.946Z,1.08
2023-03-11T15:14:23.628Z,0.80
2023-03-11T15:15:28.569Z,1.00
2023-03-11T15:16:38.395Z,1.20
2023-03-11T15:17:44.365Z,1.13
2023-03-11T15:18:46.700Z,1.10
2023-03-11T15:19:48.634Z,1.05
2023-03-11T15:21:12.307Z,1.20
2023-03-11T15:22:33.802Z,1.30
2023-03-11T15:23:36.479Z,1.15
2023-03-11T15:24:38.996Z,1.23
2023-03-11T15:25:50.298Z,1.65
2023-03-11T15:28:47.192Z,0.68
2023-03-11T15:29:52.631Z,0.68
2023-03-11T15:31:17.851Z,1.08
2023-03-11T15:32:47.901Z,0.63
2023-03-11T15:33:50.835Z,1.30
2023-03-11T15:35:07.925Z,1.25
2023-03-11T15:36:27.926Z,1.30